sensor_id;sensor_type;location;lat;lon;timestamp;temperature;humidity
26342;DHT22;14054;50.108;8.640;2023-03-31T00:02:23;11.50;99.90
26342;DHT22;14054;50.108;8.640;2023-03-31T00:04:48;11.50;99.90
26342;DHT22;14054;50.108;8.640;2023-03-31T00:07:17;11.50;99.90
26342;DHT22;14054;50.108;8.640;2023-03-31T00:09:49;11.50;99.90
26342;DHT22;14054;50.108;8.640;2023-03-31T00:12:14;11.50;99.90
26342;DHT22;14054;50.108;8.640;2023-03-31T00:14:40;11.50;99.90
26342;DHT22;14054;50.108;8.640;2023-03-31T00:17:06;11.50;99.90
26342;DHT22;14054;50.108;8.640;2023-03-31T00:19:31;11.40;99.90
26342;DHT22;14054;50.108;8.640;2023-03-31T00:21:57;11.40;99.90
26342;DHT22;14054;50.108;8.640;2023-03-31T00:24:26;11.40;99.90
26342;DHT22;14054;50.108;8.640;2023-03-31T00:26:52;11.40;99.90
26342;DHT22;14054;50.108;8.640;2023-03-31T00:29:17;11.30;99.90
26342;DHT22;14054;50.108;8.640;2023-03-31T00:31:43;11.20;99.90
26342;DHT22;14054;50.108;8.640;2023-03-31T00:34:08;11.20;99.90
26342;DHT22;14054;50.108;8.640;2023-03-31T00:36:34;11.10;99.90
26342;DHT22;14054;50.108;8.640;2023-03-31T00:39:05;11.10;99.90
26342;DHT22;14054;50.108;8.640;2023-03-31T00:41:34;11.00;99.90
26342;DHT22;14054;50.108;8.640;2023-03-31T00:44:01;11.00;99.90
26342;DHT22;14054;50.108;8.640;2023-03-31T00:46:32;11.00;99.90
26342;DHT22;14054;50.108;8.640;2023-03-31T00:48:58;10.90;99.90
26342;DHT22;14054;50.108;8.640;2023-03-31T00:51:25;10.80;99.90
26342;DHT22;14054;50.108;8.640;2023-03-31T00:53:53;10.80;99.90
26342;DHT22;14054;50.108;8.640;2023-03-31T00:56:21;10.70;99.90
26342;DHT22;14054;50.108;8.640;2023-03-31T00:58:48;10.60;99.90
26342;DHT22;14054;50.108;8.640;2023-03-31T01:01:15;10.60;99.90
26342;DHT22;14054;50.108;8.640;2023-03-31T01:03:43;10.60;99.90
26342;DHT22;14054;50.108;8.640;2023-03-31T01:06:09;10.50;99.90
26342;DHT22;14054;50.108;8.640;2023-03-31T01:08:35;10.50;99.90
26342;DHT22;14054;50.108;8.640;2023-03-31T01:11:05;10.50;99.90
26342;DHT22;14054;50.108;8.640;2023-03-31T01:13:33;10.50;99.90
26342;DHT22;14054;50.108;8.640;2023-03-31T01:15:59;10.60;99.90
26342;DHT22;14054;50.108;8.640;2023-03-31T01:18:25;10.60;99.90
26342;DHT22;14054;50.108;8.640;2023-03-31T01:21:05;10.60;99.90
26342;DHT22;14054;50.108;8.640;2023-03-31T01:23:47;10.70;99.90
26342;DHT22;14054;50.108;8.640;2023-03-31T01:31:36;10.60;99.90
26342;DHT22;14054;50.108;8.640;2023-03-31T01:39:05;10.50;99.90
26342;DHT22;14054;50.108;8.640;2023-03-31T01:41:41;10.50;99.90
26342;DHT22;14054;50.108;8.640;2023-03-31T01:46:35;10.60;99.90
26342;DHT22;14054;50.108;8.640;2023-03-31T01:51:31;10.60;99.90
26342;DHT22;14054;50.108;8.640;2023-03-31T01:56:45;10.50;99.90
26342;DHT22;14054;50.108;8.640;2023-03-31T01:59:16;10.50;99.90
26342;DHT22;14054;50.108;8.640;2023-03-31T02:04:30;10.40;99.90
26342;DHT22;14054;50.108;8.640;2023-03-31T02:07:02;10.40;99.90
26342;DHT22;14054;50.108;8.640;2023-03-31T02:09:30;10.40;99.90
26342;DHT22;14054;50.108;8.640;2023-03-31T02:11:56;10.40;99.90
26342;DHT22;14054;50.108;8.640;2023-03-31T02:14:23;10.30;99.90
26342;DHT22;14054;50.108;8.640;2023-03-31T02:16:51;10.30;99.90
26342;DHT22;14054;50.108;8.640;2023-03-31T02:19:18;10.30;99.90
26342;DHT22;14054;50.108;8.640;2023-03-31T02:21:46;10.30;99.90
26342;DHT22;14054;50.108;8.640;2023-03-31T02:24:15;10.20;99.90
26342;DHT22;14054;50.108;8.640;2023-03-31T02:26:44;10.20;99.90
26342;DHT22;14054;50.108;8.640;2023-03-31T02:29:13;10.20;99.90
26342;DHT22;14054;50.108;8.640;2023-03-31T02:31:46;10.20;99.90
26342;DHT22;14054;50.108;8.640;2023-03-31T02:34:12;10.20;99.90
26342;DHT22;14054;50.108;8.640;2023-03-31T02:36:38;10.20;99.90
26342;DHT22;14054;50.108;8.640;2023-03-31T02:39:06;10.20;99.90
26342;DHT22;14054;50.108;8.640;2023-03-31T02:41:32;10.20;99.90
26342;DHT22;14054;50.108;8.640;2023-03-31T02:43:58;10.20;99.90
26342;DHT22;14054;50.108;8.640;2023-03-31T02:46:24;10.20;99.90
26342;DHT22;14054;50.108;8.640;2023-03-31T02:48:50;10.20;99.90
26342;DHT22;14054;50.108;8.640;2023-03-31T02:51:24;10.20;99.90
26342;DHT22;14054;50.108;8.640;2023-03-31T02:56:25;10.30;99.90
26342;DHT22;14054;50.108;8.640;2023-03-31T02:59:06;10.30;99.90
26342;DHT22;14054;50.108;8.640;2023-03-31T03:04:23;10.30;99.90
26342;DHT22;14054;50.108;8.640;2023-03-31T03:09:43;10.30;99.90
26342;DHT22;14054;50.108;8.640;2023-03-31T03:17:29;10.20;99.90
26342;DHT22;14054;50.108;8.640;2023-03-31T03:19:58;10.20;99.90
26342;DHT22;14054;50.108;8.640;2023-03-31T03:22:23;10.30;99.90
26342;DHT22;14054;50.108;8.640;2023-03-31T03:24:49;10.30;99.90
26342;DHT22;14054;50.108;8.640;2023-03-31T03:27:15;10.30;99.90
26342;DHT22;14054;50.108;8.640;2023-03-31T03:29:41;10.30;99.90
26342;DHT22;14054;50.108;8.640;2023-03-31T03:32:07;10.30;99.90
26342;DHT22;14054;50.108;8.640;2023-03-31T03:34:33;10.30;99.90
26342;DHT22;14054;50.108;8.640;2023-03-31T03:36:58;10.30;99.90
26342;DHT22;14054;50.108;8.640;2023-03-31T03:39:24;10.20;99.90
26342;DHT22;14054;50.108;8.640;2023-03-31T03:41:49;10.30;99.90
26342;DHT22;14054;50.108;8.640;2023-03-31T03:44:15;10.20;99.90
26342;DHT22;14054;50.108;8.640;2023-03-31T03:46:40;10.20;99.90
26342;DHT22;14054;50.108;8.640;2023-03-31T03:49:06;10.20;99.90
26342;DHT22;14054;50.108;8.640;2023-03-31T03:51:31;10.30;99.90
26342;DHT22;14054;50.108;8.640;2023-03-31T03:53:56;10.20;99.90
26342;DHT22;14054;50.108;8.640;2023-03-31T03:56:22;10.20;99.90
26342;DHT22;14054;50.108;8.640;2023-03-31T03:58:47;10.20;99.90
26342;DHT22;14054;50.108;8.640;2023-03-31T04:01:13;10.20;99.90
26342;DHT22;14054;50.108;8.640;2023-03-31T04:03:38;10.20;99.90
26342;DHT22;14054;50.108;8.640;2023-03-31T04:06:04;10.20;99.90
26342;DHT22;14054;50.108;8.640;2023-03-31T04:08:30;10.20;99.90
26342;DHT22;14054;50.108;8.640;2023-03-31T04:10:55;10.20;99.90
26342;DHT22;14054;50.108;8.640;2023-03-31T04:13:21;10.20;99.90
26342;DHT22;14054;50.108;8.640;2023-03-31T04:15:46;10.20;99.90
26342;DHT22;14054;50.108;8.640;2023-03-31T04:18:11;10.20;99.90
26342;DHT22;14054;50.108;8.640;2023-03-31T04:20:50;10.20;99.90
26342;DHT22;14054;50.108;8.640;2023-03-31T04:23:31;10.20;99.90
26342;DHT22;14054;50.108;8.640;2023-03-31T04:25:57;10.20;99.90
26342;DHT22;14054;50.108;8.640;2023-03-31T04:28:22;10.20;99.90
26342;DHT22;14054;50.108;8.640;2023-03-31T04:30:53;10.10;99.90
26342;DHT22;14054;50.108;8.640;2023-03-31T04:33:19;10.20;99.90
26342;DHT22;14054;50.108;8.640;2023-03-31T04:35:45;10.20;99.90
26342;DHT22;14054;50.108;8.640;2023-03-31T04:38:14;10.20;99.90
26342;DHT22;14054;50.108;8.640;2023-03-31T04:40:43;10.30;99.90
26342;DHT22;14054;50.108;8.640;2023-03-31T04:43:09;10.20;99.90
26342;DHT22;14054;50.108;8.640;2023-03-31T04:45:34;10.30;99.90
26342;DHT22;14054;50.108;8.640;2023-03-31T04:48:00;10.30;99.90
26342;DHT22;14054;50.108;8.640;2023-03-31T04:50:25;10.30;99.90
26342;DHT22;14054;50.108;8.640;2023-03-31T04:52:50;10.30;99.90
26342;DHT22;14054;50.108;8.640;2023-03-31T04:55:16;10.30;99.90
26342;DHT22;14054;50.108;8.640;2023-03-31T04:57:41;10.30;99.90
26342;DHT22;14054;50.108;8.640;2023-03-31T05:00:07;10.30;99.90
26342;DHT22;14054;50.108;8.640;2023-03-31T05:02:33;10.30;99.90
26342;DHT22;14054;50.108;8.640;2023-03-31T05:04:58;10.20;99.90
26342;DHT22;14054;50.108;8.640;2023-03-31T05:07:24;10.30;99.90
26342;DHT22;14054;50.108;8.640;2023-03-31T05:09:49;10.30;99.90
26342;DHT22;14054;50.108;8.640;2023-03-31T05:12:15;10.30;99.90
26342;DHT22;14054;50.108;8.640;2023-03-31T05:14:40;10.30;99.90
26342;DHT22;14054;50.108;8.640;2023-03-31T05:17:06;10.30;99.90
26342;DHT22;14054;50.108;8.640;2023-03-31T05:19:31;10.30;99.90
26342;DHT22;14054;50.108;8.640;2023-03-31T05:21:57;10.40;99.90
26342;DHT22;14054;50.108;8.640;2023-03-31T05:24:22;10.40;99.90
26342;DHT22;14054;50.108;8.640;2023-03-31T05:26:47;10.40;99.90
26342;DHT22;14054;50.108;8.640;2023-03-31T05:29:20;10.30;99.90
26342;DHT22;14054;50.108;8.640;2023-03-31T05:31:45;10.30;99.90
26342;DHT22;14054;50.108;8.640;2023-03-31T05:34:11;10.30;99.90
26342;DHT22;14054;50.108;8.640;2023-03-31T05:36:36;10.30;99.90
26342;DHT22;14054;50.108;8.640;2023-03-31T05:39:03;10.30;99.90
26342;DHT22;14054;50.108;8.640;2023-03-31T05:41:29;10.30;99.90
26342;DHT22;14054;50.108;8.640;2023-03-31T05:43:54;10.20;99.90
26342;DHT22;14054;50.108;8.640;2023-03-31T05:46:20;10.20;99.90
26342;DHT22;14054;50.108;8.640;2023-03-31T05:48:45;10.20;99.90
26342;DHT22;14054;50.108;8.640;2023-03-31T05:51:10;10.20;99.90
26342;DHT22;14054;50.108;8.640;2023-03-31T05:53:36;10.10;99.90
26342;DHT22;14054;50.108;8.640;2023-03-31T05:56:02;10.10;99.90
26342;DHT22;14054;50.108;8.640;2023-03-31T05:58:28;10.10;99.90
26342;DHT22;14054;50.108;8.640;2023-03-31T06:01:04;10.00;99.90
26342;DHT22;14054;50.108;8.640;2023-03-31T06:03:31;10.00;99.90
26342;DHT22;14054;50.108;8.640;2023-03-31T06:05:56;9.90;99.90
26342;DHT22;14054;50.108;8.640;2023-03-31T06:08:23;10.00;99.90
26342;DHT22;14054;50.108;8.640;2023-03-31T06:10:49;10.00;99.90
26342;DHT22;14054;50.108;8.640;2023-03-31T06:13:14;9.90;99.90
26342;DHT22;14054;50.108;8.640;2023-03-31T06:15:40;10.00;99.90
26342;DHT22;14054;50.108;8.640;2023-03-31T06:18:06;9.90;99.90
26342;DHT22;14054;50.108;8.640;2023-03-31T06:20:35;9.90;99.90
26342;DHT22;14054;50.108;8.640;2023-03-31T06:23:00;9.90;99.90
26342;DHT22;14054;50.108;8.640;2023-03-31T06:25:25;9.90;99.90
26342;DHT22;14054;50.108;8.640;2023-03-31T06:27:51;9.90;99.90
26342;DHT22;14054;50.108;8.640;2023-03-31T06:30:16;9.90;99.90
26342;DHT22;14054;50.108;8.640;2023-03-31T06:32:42;9.80;99.90
26342;DHT22;14054;50.108;8.640;2023-03-31T06:35:07;9.90;99.90
26342;DHT22;14054;50.108;8.640;2023-03-31T06:37:33;9.80;99.90
26342;DHT22;14054;50.108;8.640;2023-03-31T06:39:58;9.80;99.90
26342;DHT22;14054;50.108;8.640;2023-03-31T06:42:24;9.80;99.90
26342;DHT22;14054;50.108;8.640;2023-03-31T06:44:49;9.90;99.90
26342;DHT22;14054;50.108;8.640;2023-03-31T06:47:15;9.90;99.90
26342;DHT22;14054;50.108;8.640;2023-03-31T06:49:40;9.90;99.90
26342;DHT22;14054;50.108;8.640;2023-03-31T06:52:05;9.90;99.90
26342;DHT22;14054;50.108;8.640;2023-03-31T06:54:31;9.90;99.90
26342;DHT22;14054;50.108;8.640;2023-03-31T06:56:56;10.00;99.90
26342;DHT22;14054;50.108;8.640;2023-03-31T06:59:22;10.00;99.90
26342;DHT22;14054;50.108;8.640;2023-03-31T07:01:47;10.00;99.90
26342;DHT22;14054;50.108;8.640;2023-03-31T07:04:14;10.00;99.90
26342;DHT22;14054;50.108;8.640;2023-03-31T07:06:40;10.10;99.90
26342;DHT22;14054;50.108;8.640;2023-03-31T07:09:05;10.10;99.90
26342;DHT22;14054;50.108;8.640;2023-03-31T07:11:31;10.20;99.90
26342;DHT22;14054;50.108;8.640;2023-03-31T07:13:56;10.20;99.90
26342;DHT22;14054;50.108;8.640;2023-03-31T07:16:22;10.20;99.90
26342;DHT22;14054;50.108;8.640;2023-03-31T07:18:47;10.20;99.90
26342;DHT22;14054;50.108;8.640;2023-03-31T07:21:14;10.20;99.90
26342;DHT22;14054;50.108;8.640;2023-03-31T07:23:40;10.30;99.90
26342;DHT22;14054;50.108;8.640;2023-03-31T07:26:05;10.30;99.90
26342;DHT22;14054;50.108;8.640;2023-03-31T07:28:31;10.30;99.90
26342;DHT22;14054;50.108;8.640;2023-03-31T07:30:57;10.30;99.90
26342;DHT22;14054;50.108;8.640;2023-03-31T07:33:22;10.30;99.90
26342;DHT22;14054;50.108;8.640;2023-03-31T07:35:48;10.30;99.90
26342;DHT22;14054;50.108;8.640;2023-03-31T07:38:13;10.30;99.90
26342;DHT22;14054;50.108;8.640;2023-03-31T07:40:39;10.40;99.90
26342;DHT22;14054;50.108;8.640;2023-03-31T07:43:04;10.40;99.90
26342;DHT22;14054;50.108;8.640;2023-03-31T07:45:30;10.50;99.90
26342;DHT22;14054;50.108;8.640;2023-03-31T07:47:56;10.50;99.90
26342;DHT22;14054;50.108;8.640;2023-03-31T07:50:22;10.40;99.90
26342;DHT22;14054;50.108;8.640;2023-03-31T07:52:49;10.40;99.90
26342;DHT22;14054;50.108;8.640;2023-03-31T07:55:15;10.40;99.90
26342;DHT22;14054;50.108;8.640;2023-03-31T07:57:40;10.50;99.90
26342;DHT22;14054;50.108;8.640;2023-03-31T08:00:07;10.60;99.90
26342;DHT22;14054;50.108;8.640;2023-03-31T08:02:34;10.70;99.90
26342;DHT22;14054;50.108;8.640;2023-03-31T08:05:00;10.80;99.90
26342;DHT22;14054;50.108;8.640;2023-03-31T08:07:26;11.00;99.90
26342;DHT22;14054;50.108;8.640;2023-03-31T08:09:55;11.10;99.90
26342;DHT22;14054;50.108;8.640;2023-03-31T08:12:20;11.10;99.90
26342;DHT22;14054;50.108;8.640;2023-03-31T08:14:46;11.00;99.90
26342;DHT22;14054;50.108;8.640;2023-03-31T08:17:11;11.10;99.90
26342;DHT22;14054;50.108;8.640;2023-03-31T08:19:37;11.20;99.90
26342;DHT22;14054;50.108;8.640;2023-03-31T08:22:02;11.30;99.90
26342;DHT22;14054;50.108;8.640;2023-03-31T08:24:28;11.40;99.90
26342;DHT22;14054;50.108;8.640;2023-03-31T08:26:53;11.50;99.90
26342;DHT22;14054;50.108;8.640;2023-03-31T08:29:19;11.50;99.90
26342;DHT22;14054;50.108;8.640;2023-03-31T08:31:44;11.60;99.90
26342;DHT22;14054;50.108;8.640;2023-03-31T08:34:09;11.80;99.90
26342;DHT22;14054;50.108;8.640;2023-03-31T08:36:35;12.30;99.90
26342;DHT22;14054;50.108;8.640;2023-03-31T08:39:02;12.50;99.90
26342;DHT22;14054;50.108;8.640;2023-03-31T08:41:46;12.40;99.90
26342;DHT22;14054;50.108;8.640;2023-03-31T08:46:50;12.20;99.90
26342;DHT22;14054;50.108;8.640;2023-03-31T08:49:17;12.00;99.90
26342;DHT22;14054;50.108;8.640;2023-03-31T08:51:46;12.00;99.90
26342;DHT22;14054;50.108;8.640;2023-03-31T08:54:16;11.80;99.90
26342;DHT22;14054;50.108;8.640;2023-03-31T08:56:43;11.80;99.90
26342;DHT22;14054;50.108;8.640;2023-03-31T08:59:30;11.70;99.90
26342;DHT22;14054;50.108;8.640;2023-03-31T09:01:58;11.70;99.90
26342;DHT22;14054;50.108;8.640;2023-03-31T09:04:40;11.80;99.90
26342;DHT22;14054;50.108;8.640;2023-03-31T09:07:15;11.80;99.90
26342;DHT22;14054;50.108;8.640;2023-03-31T09:12:38;11.90;99.90
26342;DHT22;14054;50.108;8.640;2023-03-31T09:15:09;12.10;99.90
26342;DHT22;14054;50.108;8.640;2023-03-31T09:17:53;12.30;99.90
26342;DHT22;14054;50.108;8.640;2023-03-31T09:22:47;13.70;99.90
26342;DHT22;14054;50.108;8.640;2023-03-31T09:25:17;14.00;99.90
26342;DHT22;14054;50.108;8.640;2023-03-31T09:27:44;13.90;99.90
26342;DHT22;14054;50.108;8.640;2023-03-31T09:30:25;13.50;99.90
26342;DHT22;14054;50.108;8.640;2023-03-31T09:32:51;13.10;99.90
26342;DHT22;14054;50.108;8.640;2023-03-31T09:37:46;12.80;99.90
26342;DHT22;14054;50.108;8.640;2023-03-31T09:40:17;13.00;99.90
26342;DHT22;14054;50.108;8.640;2023-03-31T09:42:43;13.10;99.90
26342;DHT22;14054;50.108;8.640;2023-03-31T09:45:13;13.40;99.90
26342;DHT22;14054;50.108;8.640;2023-03-31T09:47:57;13.70;99.90
26342;DHT22;14054;50.108;8.640;2023-03-31T09:50:24;14.20;99.90
26342;DHT22;14054;50.108;8.640;2023-03-31T09:52:51;14.30;99.90
26342;DHT22;14054;50.108;8.640;2023-03-31T09:55:19;14.70;99.90
26342;DHT22;14054;50.108;8.640;2023-03-31T09:57:45;14.80;99.90
26342;DHT22;14054;50.108;8.640;2023-03-31T10:05:34;14.60;99.90
26342;DHT22;14054;50.108;8.640;2023-03-31T10:10:35;14.70;99.90
26342;DHT22;14054;50.108;8.640;2023-03-31T10:13:00;14.80;99.90
26342;DHT22;14054;50.108;8.640;2023-03-31T10:15:31;14.70;99.90
26342;DHT22;14054;50.108;8.640;2023-03-31T10:18:01;14.30;99.90
26342;DHT22;14054;50.108;8.640;2023-03-31T10:20:31;14.30;99.90
26342;DHT22;14054;50.108;8.640;2023-03-31T10:23:01;14.10;99.90
26342;DHT22;14054;50.108;8.640;2023-03-31T10:25:26;13.70;99.90
26342;DHT22;14054;50.108;8.640;2023-03-31T10:27:52;13.20;99.90
26342;DHT22;14054;50.108;8.640;2023-03-31T10:30:27;12.70;99.90
26342;DHT22;14054;50.108;8.640;2023-03-31T10:32:54;12.30;99.90
26342;DHT22;14054;50.108;8.640;2023-03-31T10:37:45;11.40;99.90
26342;DHT22;14054;50.108;8.640;2023-03-31T10:42:37;9.80;99.90
26342;DHT22;14054;50.108;8.640;2023-03-31T10:47:47;9.50;99.90
26342;DHT22;14054;50.108;8.640;2023-03-31T10:50:15;9.50;99.90
26342;DHT22;14054;50.108;8.640;2023-03-31T10:52:44;9.60;99.90
26342;DHT22;14054;50.108;8.640;2023-03-31T10:55:11;9.60;99.90
26342;DHT22;14054;50.108;8.640;2023-03-31T11:05:45;9.90;99.90
26342;DHT22;14054;50.108;8.640;2023-03-31T11:11:03;10.40;99.90
26342;DHT22;14054;50.108;8.640;2023-03-31T11:16:13;11.00;99.90
26342;DHT22;14054;50.108;8.640;2023-03-31T11:21:20;11.90;99.90
26342;DHT22;14054;50.108;8.640;2023-03-31T11:26:14;13.80;99.90
26342;DHT22;14054;50.108;8.640;2023-03-31T11:33:57;15.10;99.90
26342;DHT22;14054;50.108;8.640;2023-03-31T11:36:37;16.50;99.90
26342;DHT22;14054;50.108;8.640;2023-03-31T11:41:53;16.70;99.90
26342;DHT22;14054;50.108;8.640;2023-03-31T11:44:19;16.10;99.90
26342;DHT22;14054;50.108;8.640;2023-03-31T11:49:25;14.80;99.90
26342;DHT22;14054;50.108;8.640;2023-03-31T11:52:01;14.60;99.90
26342;DHT22;14054;50.108;8.640;2023-03-31T11:54:38;15.10;99.90
26342;DHT22;14054;50.108;8.640;2023-03-31T11:57:08;15.10;99.90
26342;DHT22;14054;50.108;8.640;2023-03-31T11:59:35;14.40;99.90
26342;DHT22;14054;50.108;8.640;2023-03-31T12:04:30;13.70;99.90
26342;DHT22;14054;50.108;8.640;2023-03-31T12:07:00;13.40;99.90
26342;DHT22;14054;50.108;8.640;2023-03-31T12:09:49;12.80;99.90
26342;DHT22;14054;50.108;8.640;2023-03-31T12:12:23;12.30;99.90
26342;DHT22;14054;50.108;8.640;2023-03-31T12:14:52;12.20;99.90
26342;DHT22;14054;50.108;8.640;2023-03-31T12:17:21;12.20;99.90
26342;DHT22;14054;50.108;8.640;2023-03-31T12:19:53;12.20;99.90
26342;DHT22;14054;50.108;8.640;2023-03-31T12:24:50;13.20;99.90
26342;DHT22;14054;50.108;8.640;2023-03-31T12:27:19;13.20;99.90
26342;DHT22;14054;50.108;8.640;2023-03-31T12:32:18;12.80;99.90
26342;DHT22;14054;50.108;8.640;2023-03-31T12:34:47;12.60;99.90
26342;DHT22;14054;50.108;8.640;2023-03-31T12:42:14;11.40;99.90
26342;DHT22;14054;50.108;8.640;2023-03-31T12:44:59;11.30;99.90
26342;DHT22;14054;50.108;8.640;2023-03-31T12:55:08;11.40;99.90
26342;DHT22;14054;50.108;8.640;2023-03-31T12:57:41;11.60;99.90
26342;DHT22;14054;50.108;8.640;2023-03-31T13:02:38;11.60;99.90
26342;DHT22;14054;50.108;8.640;2023-03-31T13:07:48;11.50;99.90
26342;DHT22;14054;50.108;8.640;2023-03-31T13:12:38;12.00;99.90
26342;DHT22;14054;50.108;8.640;2023-03-31T13:15:04;12.30;99.90
26342;DHT22;14054;50.108;8.640;2023-03-31T13:17:37;12.90;99.90
26342;DHT22;14054;50.108;8.640;2023-03-31T13:22:46;12.90;99.90
26342;DHT22;14054;50.108;8.640;2023-03-31T13:25:39;13.00;99.90
26342;DHT22;14054;50.108;8.640;2023-03-31T13:28:10;12.90;99.90
26342;DHT22;14054;50.108;8.640;2023-03-31T13:33:06;12.80;99.90
26342;DHT22;14054;50.108;8.640;2023-03-31T13:35:36;12.70;99.90
26342;DHT22;14054;50.108;8.640;2023-03-31T14:06:02;14.40;99.90
26342;DHT22;14054;50.108;8.640;2023-03-31T14:08:33;14.40;99.90
26342;DHT22;14054;50.108;8.640;2023-03-31T14:11:17;14.50;99.90
26342;DHT22;14054;50.108;8.640;2023-03-31T14:13:42;14.40;99.90
26342;DHT22;14054;50.108;8.640;2023-03-31T14:16:08;14.40;99.90
26342;DHT22;14054;50.108;8.640;2023-03-31T14:18:34;14.40;99.90
26342;DHT22;14054;50.108;8.640;2023-03-31T14:21:19;14.60;99.90
26342;DHT22;14054;50.108;8.640;2023-03-31T14:29:13;14.60;99.90
26342;DHT22;14054;50.108;8.640;2023-03-31T14:31:51;14.40;99.90
26342;DHT22;14054;50.108;8.640;2023-03-31T14:36:52;14.40;99.90
26342;DHT22;14054;50.108;8.640;2023-03-31T14:39:22;14.60;99.90
26342;DHT22;14054;50.108;8.640;2023-03-31T14:41:51;14.40;99.90
26342;DHT22;14054;50.108;8.640;2023-03-31T14:44:17;14.30;99.90
26342;DHT22;14054;50.108;8.640;2023-03-31T14:46:43;14.20;99.90
26342;DHT22;14054;50.108;8.640;2023-03-31T14:49:26;14.30;99.90
26342;DHT22;14054;50.108;8.640;2023-03-31T14:51:53;14.40;99.90
26342;DHT22;14054;50.108;8.640;2023-03-31T14:54:19;14.30;99.90
26342;DHT22;14054;50.108;8.640;2023-03-31T14:56:46;14.30;99.90
26342;DHT22;14054;50.108;8.640;2023-03-31T14:59:16;14.30;99.90
26342;DHT22;14054;50.108;8.640;2023-03-31T15:01:43;14.30;99.90
26342;DHT22;14054;50.108;8.640;2023-03-31T15:04:11;14.20;99.90
26342;DHT22;14054;50.108;8.640;2023-03-31T15:06:39;14.00;99.90
26342;DHT22;14054;50.108;8.640;2023-03-31T15:09:06;14.00;99.90
26342;DHT22;14054;50.108;8.640;2023-03-31T15:11:32;13.90;99.90
26342;DHT22;14054;50.108;8.640;2023-03-31T15:13:58;13.70;99.90
26342;DHT22;14054;50.108;8.640;2023-03-31T15:16:33;13.50;99.90
26342;DHT22;14054;50.108;8.640;2023-03-31T15:18:59;13.10;99.90
26342;DHT22;14054;50.108;8.640;2023-03-31T15:21:26;12.60;99.90
26342;DHT22;14054;50.108;8.640;2023-03-31T15:23:53;12.20;99.90
26342;DHT22;14054;50.108;8.640;2023-03-31T15:26:19;12.00;99.90
26342;DHT22;14054;50.108;8.640;2023-03-31T15:28:51;11.80;99.90
26342;DHT22;14054;50.108;8.640;2023-03-31T15:31:17;11.70;99.90
26342;DHT22;14054;50.108;8.640;2023-03-31T15:33:42;11.60;99.90
26342;DHT22;14054;50.108;8.640;2023-03-31T15:36:11;11.70;99.90
26342;DHT22;14054;50.108;8.640;2023-03-31T15:38:37;11.80;99.90
26342;DHT22;14054;50.108;8.640;2023-03-31T15:41:02;12.00;99.90
26342;DHT22;14054;50.108;8.640;2023-03-31T15:43:41;12.10;99.90
26342;DHT22;14054;50.108;8.640;2023-03-31T15:46:24;12.20;99.90
26342;DHT22;14054;50.108;8.640;2023-03-31T15:49:03;12.40;99.90
26342;DHT22;14054;50.108;8.640;2023-03-31T15:51:31;12.50;99.90
26342;DHT22;14054;50.108;8.640;2023-03-31T15:53:58;12.50;99.90
26342;DHT22;14054;50.108;8.640;2023-03-31T15:58:56;12.40;99.90
26342;DHT22;14054;50.108;8.640;2023-03-31T16:01:22;12.30;99.90
26342;DHT22;14054;50.108;8.640;2023-03-31T16:03:50;12.30;99.90
26342;DHT22;14054;50.108;8.640;2023-03-31T16:06:21;12.30;99.90
26342;DHT22;14054;50.108;8.640;2023-03-31T16:08:52;12.30;99.90
26342;DHT22;14054;50.108;8.640;2023-03-31T16:11:22;12.30;99.90
26342;DHT22;14054;50.108;8.640;2023-03-31T16:13:51;12.20;99.90
26342;DHT22;14054;50.108;8.640;2023-03-31T16:16:17;12.20;99.90
26342;DHT22;14054;50.108;8.640;2023-03-31T16:18:51;12.20;99.90
26342;DHT22;14054;50.108;8.640;2023-03-31T16:21:21;12.20;99.90
26342;DHT22;14054;50.108;8.640;2023-03-31T16:23:51;12.20;99.90
26342;DHT22;14054;50.108;8.640;2023-03-31T16:26:21;12.10;99.90
26342;DHT22;14054;50.108;8.640;2023-03-31T16:28:50;12.10;99.90
26342;DHT22;14054;50.108;8.640;2023-03-31T16:31:26;12.00;99.90
26342;DHT22;14054;50.108;8.640;2023-03-31T16:33:53;11.90;99.90
26342;DHT22;14054;50.108;8.640;2023-03-31T16:36:19;11.70;99.90
26342;DHT22;14054;50.108;8.640;2023-03-31T16:38:44;11.60;99.90
26342;DHT22;14054;50.108;8.640;2023-03-31T16:41:11;11.50;99.90
26342;DHT22;14054;50.108;8.640;2023-03-31T16:43:38;11.40;99.90
26342;DHT22;14054;50.108;8.640;2023-03-31T16:46:04;11.30;99.90
26342;DHT22;14054;50.108;8.640;2023-03-31T16:48:29;11.20;99.90
26342;DHT22;14054;50.108;8.640;2023-03-31T16:50:58;11.20;99.90
26342;DHT22;14054;50.108;8.640;2023-03-31T16:53:26;11.20;99.90
26342;DHT22;14054;50.108;8.640;2023-03-31T16:55:52;11.20;99.90
26342;DHT22;14054;50.108;8.640;2023-03-31T16:58:17;11.20;99.90
26342;DHT22;14054;50.108;8.640;2023-03-31T17:00:43;11.30;99.90
26342;DHT22;14054;50.108;8.640;2023-03-31T17:03:10;11.10;99.90
26342;DHT22;14054;50.108;8.640;2023-03-31T17:05:39;11.10;99.90
26342;DHT22;14054;50.108;8.640;2023-03-31T17:08:05;11.20;99.90
26342;DHT22;14054;50.108;8.640;2023-03-31T17:10:33;11.20;99.90
26342;DHT22;14054;50.108;8.640;2023-03-31T17:12:58;11.10;99.90
26342;DHT22;14054;50.108;8.640;2023-03-31T17:15:23;11.20;99.90
26342;DHT22;14054;50.108;8.640;2023-03-31T17:17:49;11.20;99.90
26342;DHT22;14054;50.108;8.640;2023-03-31T17:20:14;11.10;99.90
26342;DHT22;14054;50.108;8.640;2023-03-31T17:22:40;11.00;99.90
26342;DHT22;14054;50.108;8.640;2023-03-31T17:25:06;11.10;99.90
26342;DHT22;14054;50.108;8.640;2023-03-31T17:27:32;11.00;99.90
26342;DHT22;14054;50.108;8.640;2023-03-31T17:29:58;11.10;99.90
26342;DHT22;14054;50.108;8.640;2023-03-31T17:32:23;11.10;99.90
26342;DHT22;14054;50.108;8.640;2023-03-31T17:34:48;11.10;99.90
26342;DHT22;14054;50.108;8.640;2023-03-31T17:37:15;11.10;99.90
26342;DHT22;14054;50.108;8.640;2023-03-31T17:39:41;11.10;99.90
26342;DHT22;14054;50.108;8.640;2023-03-31T17:42:07;11.20;99.90
26342;DHT22;14054;50.108;8.640;2023-03-31T17:44:32;11.20;99.90
26342;DHT22;14054;50.108;8.640;2023-03-31T17:46:58;11.10;99.90
26342;DHT22;14054;50.108;8.640;2023-03-31T17:49:23;11.20;99.90
26342;DHT22;14054;50.108;8.640;2023-03-31T17:51:49;11.30;99.90
26342;DHT22;14054;50.108;8.640;2023-03-31T17:54:15;11.30;99.90
26342;DHT22;14054;50.108;8.640;2023-03-31T17:56:40;11.20;99.90
26342;DHT22;14054;50.108;8.640;2023-03-31T17:59:06;11.10;99.90
26342;DHT22;14054;50.108;8.640;2023-03-31T18:01:32;11.20;99.90
26342;DHT22;14054;50.108;8.640;2023-03-31T18:03:57;11.10;99.90
26342;DHT22;14054;50.108;8.640;2023-03-31T18:06:23;11.10;99.90
26342;DHT22;14054;50.108;8.640;2023-03-31T18:08:49;11.30;99.90
26342;DHT22;14054;50.108;8.640;2023-03-31T18:11:14;11.10;99.90
26342;DHT22;14054;50.108;8.640;2023-03-31T18:13:40;11.00;99.90
26342;DHT22;14054;50.108;8.640;2023-03-31T18:16:06;11.10;99.90
26342;DHT22;14054;50.108;8.640;2023-03-31T18:18:36;11.10;99.90